sensor_id;sensor_type;location;lat;lon;timestamp;P1;durP1;ratioP1;P2;durP2;ratioP2
15202;SDS011;7702;51.046;5.184;2023-06-22T00:00:47;4.20;;;3.83;;
15202;SDS011;7702;51.046;5.184;2023-06-22T00:03:13;4.50;;;4.10;;
15202;SDS011;7702;51.046;5.184;2023-06-22T00:05:39;4.40;;;3.70;;
15202;SDS011;7702;51.046;5.184;2023-06-22T00:08:05;4.20;;;3.80;;
15202;SDS011;7702;51.046;5.184;2023-06-22T00:10:31;4.43;;;3.57;;
15202;SDS011;7702;51.046;5.184;2023-06-22T00:12:56;5.20;;;3.90;;
15202;SDS011;7702;51.046;5.184;2023-06-22T00:15:22;4.60;;;4.20;;
15202;SDS011;7702;51.046;5.184;2023-06-22T00:17:48;4.20;;;3.77;;
15202;SDS011;7702;51.046;5.184;2023-06-22T00:20:14;3.93;;;3.57;;
15202;SDS011;7702;51.046;5.184;2023-06-22T00:22:43;3.83;;;3.53;;
15202;SDS011;7702;51.046;5.184;2023-06-22T00:25:09;3.63;;;3.33;;
15202;SDS011;7702;51.046;5.184;2023-06-22T00:27:35;5.50;;;3.80;;
15202;SDS011;7702;51.046;5.184;2023-06-22T00:30:01;4.47;;;3.93;;
15202;SDS011;7702;51.046;5.184;2023-06-22T00:32:27;4.33;;;3.93;;
15202;SDS011;7702;51.046;5.184;2023-06-22T00:34:53;5.10;;;3.83;;
15202;SDS011;7702;51.046;5.184;2023-06-22T00:37:18;4.70;;;3.60;;
15202;SDS011;7702;51.046;5.184;2023-06-22T00:39:44;4.23;;;3.93;;
15202;SDS011;7702;51.046;5.184;2023-06-22T00:42:10;4.20;;;3.77;;
15202;SDS011;7702;51.046;5.184;2023-06-22T00:44:36;3.87;;;3.57;;
15202;SDS011;7702;51.046;5.184;2023-06-22T00:47:02;3.93;;;3.53;;
15202;SDS011;7702;51.046;5.184;2023-06-22T00:49:28;4.43;;;4.13;;
15202;SDS011;7702;51.046;5.184;2023-06-22T00:51:54;4.33;;;3.80;;
15202;SDS011;7702;51.046;5.184;2023-06-22T00:54:22;4.03;;;3.67;;
15202;SDS011;7702;51.046;5.184;2023-06-22T00:56:55;3.90;;;3.60;;
15202;SDS011;7702;51.046;5.184;2023-06-22T00:59:23;4.33;;;3.93;;
15202;SDS011;7702;51.046;5.184;2023-06-22T01:01:51;4.60;;;4.20;;
15202;SDS011;7702;51.046;5.184;2023-06-22T01:04:16;4.43;;;4.03;;
15202;SDS011;7702;51.046;5.184;2023-06-22T01:06:58;4.27;;;3.90;;
15202;SDS011;7702;51.046;5.184;2023-06-22T01:09:52;3.40;;;3.10;;
15202;SDS011;7702;51.046;5.184;2023-06-22T01:12:41;8.53;;;4.70;;
15202;SDS011;7702;51.046;5.184;2023-06-22T01:15:11;4.80;;;4.30;;
15202;SDS011;7702;51.046;5.184;2023-06-22T01:17:44;4.30;;;3.90;;
15202;SDS011;7702;51.046;5.184;2023-06-22T01:20:12;4.73;;;4.37;;
15202;SDS011;7702;51.046;5.184;2023-06-22T01:23:05;4.73;;;4.37;;
15202;SDS011;7702;51.046;5.184;2023-06-22T01:31:18;4.87;;;4.37;;
15202;SDS011;7702;51.046;5.184;2023-06-22T01:33:48;4.57;;;4.17;;
15202;SDS011;7702;51.046;5.184;2023-06-22T01:36:19;5.00;;;4.43;;
15202;SDS011;7702;51.046;5.184;2023-06-22T01:38:47;5.77;;;4.70;;
15202;SDS011;7702;51.046;5.184;2023-06-22T01:41:14;6.03;;;4.87;;
15202;SDS011;7702;51.046;5.184;2023-06-22T01:43:42;5.57;;;4.50;;
15202;SDS011;7702;51.046;5.184;2023-06-22T01:46:10;4.93;;;4.30;;
15202;SDS011;7702;51.046;5.184;2023-06-22T01:48:37;5.67;;;5.10;;
15202;SDS011;7702;51.046;5.184;2023-06-22T01:51:04;5.47;;;4.97;;
15202;SDS011;7702;51.046;5.184;2023-06-22T01:53:30;5.43;;;4.93;;
15202;SDS011;7702;51.046;5.184;2023-06-22T01:55:56;5.07;;;4.63;;
15202;SDS011;7702;51.046;5.184;2023-06-22T01:58:23;5.73;;;5.13;;
15202;SDS011;7702;51.046;5.184;2023-06-22T02:03:38;6.90;;;5.63;;
15202;SDS011;7702;51.046;5.184;2023-06-22T02:06:14;6.70;;;6.10;;
15202;SDS011;7702;51.046;5.184;2023-06-22T02:08:46;7.70;;;6.53;;
15202;SDS011;7702;51.046;5.184;2023-06-22T02:11:15;8.50;;;7.70;;
15202;SDS011;7702;51.046;5.184;2023-06-22T02:13:44;7.40;;;6.70;;
15202;SDS011;7702;51.046;5.184;2023-06-22T02:16:11;7.70;;;6.53;;
15202;SDS011;7702;51.046;5.184;2023-06-22T02:18:37;8.07;;;7.20;;
15202;SDS011;7702;51.046;5.184;2023-06-22T02:21:05;9.93;;;8.07;;
15202;SDS011;7702;51.046;5.184;2023-06-22T02:23:31;10.57;;;7.73;;
15202;SDS011;7702;51.046;5.184;2023-06-22T02:26:00;8.80;;;7.90;;
15202;SDS011;7702;51.046;5.184;2023-06-22T02:28:27;9.37;;;8.43;;
15202;SDS011;7702;51.046;5.184;2023-06-22T02:30:54;9.63;;;8.83;;
15202;SDS011;7702;51.046;5.184;2023-06-22T02:33:19;10.27;;;8.73;;
15202;SDS011;7702;51.046;5.184;2023-06-22T02:35:46;9.53;;;8.63;;
15202;SDS011;7702;51.046;5.184;2023-06-22T02:38:14;11.87;;;10.67;;
15202;SDS011;7702;51.046;5.184;2023-06-22T02:40:40;10.57;;;9.67;;
15202;SDS011;7702;51.046;5.184;2023-06-22T02:43:06;10.80;;;9.73;;
15202;SDS011;7702;51.046;5.184;2023-06-22T02:45:31;11.07;;;10.00;;
15202;SDS011;7702;51.046;5.184;2023-06-22T02:47:57;11.40;;;10.33;;
15202;SDS011;7702;51.046;5.184;2023-06-22T02:50:23;11.73;;;10.63;;
15202;SDS011;7702;51.046;5.184;2023-06-22T02:52:49;12.00;;;10.57;;
15202;SDS011;7702;51.046;5.184;2023-06-22T02:55:14;12.27;;;10.20;;
15202;SDS011;7702;51.046;5.184;2023-06-22T02:57:40;12.53;;;11.33;;
15202;SDS011;7702;51.046;5.184;2023-06-22T03:00:09;13.97;;;11.47;;
15202;SDS011;7702;51.046;5.184;2023-06-22T03:02:46;13.33;;;11.43;;
15202;SDS011;7702;51.046;5.184;2023-06-22T03:05:13;14.33;;;12.23;;
15202;SDS011;7702;51.046;5.184;2023-06-22T03:07:42;15.00;;;13.40;;
15202;SDS011;7702;51.046;5.184;2023-06-22T03:10:09;14.23;;;12.83;;
15202;SDS011;7702;51.046;5.184;2023-06-22T03:12:37;14.47;;;13.07;;
15202;SDS011;7702;51.046;5.184;2023-06-22T03:15:04;16.10;;;13.17;;
15202;SDS011;7702;51.046;5.184;2023-06-22T03:17:31;14.93;;;12.70;;
15202;SDS011;7702;51.046;5.184;2023-06-22T03:19:57;15.50;;;13.90;;
15202;SDS011;7702;51.046;5.184;2023-06-22T03:22:22;15.53;;;13.87;;
15202;SDS011;7702;51.046;5.184;2023-06-22T03:24:48;14.73;;;13.33;;
15202;SDS011;7702;51.046;5.184;2023-06-22T03:27:14;17.70;;;14.13;;
15202;SDS011;7702;51.046;5.184;2023-06-22T03:29:40;17.50;;;14.73;;
15202;SDS011;7702;51.046;5.184;2023-06-22T03:32:06;16.17;;;14.67;;
15202;SDS011;7702;51.046;5.184;2023-06-22T03:34:32;16.37;;;14.77;;
15202;SDS011;7702;51.046;5.184;2023-06-22T03:37:04;16.07;;;14.37;;
15202;SDS011;7702;51.046;5.184;2023-06-22T03:39:30;15.53;;;13.93;;
15202;SDS011;7702;51.046;5.184;2023-06-22T03:41:57;17.23;;;14.33;;
15202;SDS011;7702;51.046;5.184;2023-06-22T03:44:23;16.43;;;14.83;;
15202;SDS011;7702;51.046;5.184;2023-06-22T03:46:48;15.90;;;14.23;;
15202;SDS011;7702;51.046;5.184;2023-06-22T03:49:15;15.37;;;13.77;;
15202;SDS011;7702;51.046;5.184;2023-06-22T03:51:41;16.93;;;15.10;;
15202;SDS011;7702;51.046;5.184;2023-06-22T03:54:07;15.83;;;14.23;;
15202;SDS011;7702;51.046;5.184;2023-06-22T03:56:32;16.10;;;14.60;;
15202;SDS011;7702;51.046;5.184;2023-06-22T03:58:58;16.07;;;14.37;;
15202;SDS011;7702;51.046;5.184;2023-06-22T04:01:23;15.00;;;13.50;;
15202;SDS011;7702;51.046;5.184;2023-06-22T04:03:49;20.20;;;15.73;;
15202;SDS011;7702;51.046;5.184;2023-06-22T04:06:15;17.17;;;14.37;;
15202;SDS011;7702;51.046;5.184;2023-06-22T04:08:41;16.53;;;14.83;;
15202;SDS011;7702;51.046;5.184;2023-06-22T04:11:07;15.57;;;14.07;;
15202;SDS011;7702;51.046;5.184;2023-06-22T04:13:32;15.50;;;14.00;;
15202;SDS011;7702;51.046;5.184;2023-06-22T04:15:58;17.17;;;14.83;;
15202;SDS011;7702;51.046;5.184;2023-06-22T04:18:26;17.13;;;15.30;;
15202;SDS011;7702;51.046;5.184;2023-06-22T04:20:51;16.87;;;15.13;;
15202;SDS011;7702;51.046;5.184;2023-06-22T04:23:18;15.47;;;13.90;;
15202;SDS011;7702;51.046;5.184;2023-06-22T04:25:43;16.70;;;15.30;;
15202;SDS011;7702;51.046;5.184;2023-06-22T04:28:09;15.27;;;13.83;;
15202;SDS011;7702;51.046;5.184;2023-06-22T04:30:38;16.83;;;15.10;;
15202;SDS011;7702;51.046;5.184;2023-06-22T04:33:12;17.67;;;15.87;;
15202;SDS011;7702;51.046;5.184;2023-06-22T04:35:40;16.23;;;14.73;;
15202;SDS011;7702;51.046;5.184;2023-06-22T04:38:07;17.77;;;16.07;;
15202;SDS011;7702;51.046;5.184;2023-06-22T04:40:33;17.67;;;15.77;;
15202;SDS011;7702;51.046;5.184;2023-06-22T04:42:58;16.73;;;15.13;;
15202;SDS011;7702;51.046;5.184;2023-06-22T04:45:27;17.40;;;15.60;;
15202;SDS011;7702;51.046;5.184;2023-06-22T04:47:56;17.70;;;16.00;;
15202;SDS011;7702;51.046;5.184;2023-06-22T04:50:22;16.73;;;15.17;;
15202;SDS011;7702;51.046;5.184;2023-06-22T04:52:48;16.70;;;14.93;;
15202;SDS011;7702;51.046;5.184;2023-06-22T04:55:15;17.27;;;15.57;;
15202;SDS011;7702;51.046;5.184;2023-06-22T04:57:43;16.47;;;14.83;;
15202;SDS011;7702;51.046;5.184;2023-06-22T05:00:19;17.87;;;16.17;;
15202;SDS011;7702;51.046;5.184;2023-06-22T05:02:48;17.93;;;16.03;;
15202;SDS011;7702;51.046;5.184;2023-06-22T05:05:14;16.77;;;15.27;;
15202;SDS011;7702;51.046;5.184;2023-06-22T05:07:41;17.17;;;15.50;;
15202;SDS011;7702;51.046;5.184;2023-06-22T05:10:09;17.27;;;15.47;;
15202;SDS011;7702;51.046;5.184;2023-06-22T05:12:36;17.20;;;15.57;;
15202;SDS011;7702;51.046;5.184;2023-06-22T05:15:02;16.07;;;14.47;;
15202;SDS011;7702;51.046;5.184;2023-06-22T05:17:28;16.27;;;14.40;;
15202;SDS011;7702;51.046;5.184;2023-06-22T05:19:54;18.03;;;16.23;;
15202;SDS011;7702;51.046;5.184;2023-06-22T05:22:20;16.47;;;14.77;;
15202;SDS011;7702;51.046;5.184;2023-06-22T05:24:46;17.10;;;15.50;;
15202;SDS011;7702;51.046;5.184;2023-06-22T05:27:12;17.53;;;15.67;;
15202;SDS011;7702;51.046;5.184;2023-06-22T05:29:39;16.80;;;15.17;;
15202;SDS011;7702;51.046;5.184;2023-06-22T05:32:05;17.77;;;16.07;;
15202;SDS011;7702;51.046;5.184;2023-06-22T05:34:31;15.67;;;14.17;;
15202;SDS011;7702;51.046;5.184;2023-06-22T05:36:57;17.80;;;16.10;;
15202;SDS011;7702;51.046;5.184;2023-06-22T05:39:26;17.97;;;16.27;;
15202;SDS011;7702;51.046;5.184;2023-06-22T05:41:52;17.07;;;15.57;;
15202;SDS011;7702;51.046;5.184;2023-06-22T05:44:18;18.60;;;16.70;;
15202;SDS011;7702;51.046;5.184;2023-06-22T05:46:44;18.87;;;17.00;;
15202;SDS011;7702;51.046;5.184;2023-06-22T05:49:12;17.57;;;15.87;;
15202;SDS011;7702;51.046;5.184;2023-06-22T05:51:38;16.90;;;15.30;;
15202;SDS011;7702;51.046;5.184;2023-06-22T05:54:05;17.20;;;15.40;;
15202;SDS011;7702;51.046;5.184;2023-06-22T05:56:30;17.10;;;15.33;;
15202;SDS011;7702;51.046;5.184;2023-06-22T05:58:56;18.37;;;16.30;;
15202;SDS011;7702;51.046;5.184;2023-06-22T06:01:22;18.17;;;15.83;;
15202;SDS011;7702;51.046;5.184;2023-06-22T06:03:47;18.90;;;16.90;;
15202;SDS011;7702;51.046;5.184;2023-06-22T06:06:14;21.17;;;17.83;;
15202;SDS011;7702;51.046;5.184;2023-06-22T06:08:40;19.87;;;17.33;;
15202;SDS011;7702;51.046;5.184;2023-06-22T06:11:07;22.67;;;18.50;;
15202;SDS011;7702;51.046;5.184;2023-06-22T06:13:32;21.20;;;17.73;;
15202;SDS011;7702;51.046;5.184;2023-06-22T06:15:58;20.73;;;17.60;;
15202;SDS011;7702;51.046;5.184;2023-06-22T06:18:24;19.33;;;15.70;;
15202;SDS011;7702;51.046;5.184;2023-06-22T06:20:50;21.50;;;17.10;;
15202;SDS011;7702;51.046;5.184;2023-06-22T06:23:16;24.00;;;15.70;;
15202;SDS011;7702;51.046;5.184;2023-06-22T06:25:41;19.53;;;15.13;;
15202;SDS011;7702;51.046;5.184;2023-06-22T06:28:07;22.90;;;15.80;;
15202;SDS011;7702;51.046;5.184;2023-06-22T06:30:34;22.70;;;17.17;;
15202;SDS011;7702;51.046;5.184;2023-06-22T06:33:02;22.73;;;16.40;;
15202;SDS011;7702;51.046;5.184;2023-06-22T06:35:28;23.80;;;18.33;;
15202;SDS011;7702;51.046;5.184;2023-06-22T06:37:53;22.90;;;18.63;;
15202;SDS011;7702;51.046;5.184;2023-06-22T06:40:19;21.40;;;18.47;;
15202;SDS011;7702;51.046;5.184;2023-06-22T06:42:47;22.73;;;18.07;;
15202;SDS011;7702;51.046;5.184;2023-06-22T06:45:15;21.00;;;18.67;;
15202;SDS011;7702;51.046;5.184;2023-06-22T06:47:48;22.53;;;18.70;;
15202;SDS011;7702;51.046;5.184;2023-06-22T06:50:15;21.43;;;18.27;;
15202;SDS011;7702;51.046;5.184;2023-06-22T06:52:41;23.97;;;19.13;;
15202;SDS011;7702;51.046;5.184;2023-06-22T06:55:07;22.63;;;19.73;;
15202;SDS011;7702;51.046;5.184;2023-06-22T06:57:36;21.20;;;18.20;;
15202;SDS011;7702;51.046;5.184;2023-06-22T07:00:07;24.20;;;18.07;;
15202;SDS011;7702;51.046;5.184;2023-06-22T07:02:37;21.10;;;18.07;;
15202;SDS011;7702;51.046;5.184;2023-06-22T07:05:05;21.67;;;17.47;;
15202;SDS011;7702;51.046;5.184;2023-06-22T07:07:31;18.20;;;16.40;;
15202;SDS011;7702;51.046;5.184;2023-06-22T07:09:57;21.23;;;17.17;;
15202;SDS011;7702;51.046;5.184;2023-06-22T07:12:23;17.00;;;15.37;;
15202;SDS011;7702;51.046;5.184;2023-06-22T07:14:49;17.97;;;16.20;;
15202;SDS011;7702;51.046;5.184;2023-06-22T07:17:16;17.90;;;15.83;;
15202;SDS011;7702;51.046;5.184;2023-06-22T07:19:42;17.30;;;15.53;;
15202;SDS011;7702;51.046;5.184;2023-06-22T07:22:08;18.13;;;16.20;;
15202;SDS011;7702;51.046;5.184;2023-06-22T07:24:33;16.10;;;14.50;;
15202;SDS011;7702;51.046;5.184;2023-06-22T07:26:59;15.67;;;14.03;;
15202;SDS011;7702;51.046;5.184;2023-06-22T07:29:25;19.23;;;15.20;;
15202;SDS011;7702;51.046;5.184;2023-06-22T07:31:51;16.80;;;15.03;;
15202;SDS011;7702;51.046;5.184;2023-06-22T07:34:18;18.20;;;14.63;;
15202;SDS011;7702;51.046;5.184;2023-06-22T07:36:44;18.07;;;15.97;;
15202;SDS011;7702;51.046;5.184;2023-06-22T07:39:10;19.60;;;16.63;;
15202;SDS011;7702;51.046;5.184;2023-06-22T07:41:37;17.77;;;15.97;;
15202;SDS011;7702;51.046;5.184;2023-06-22T07:44:04;18.30;;;16.43;;
15202;SDS011;7702;51.046;5.184;2023-06-22T07:46:31;18.70;;;15.97;;
15202;SDS011;7702;51.046;5.184;2023-06-22T07:48:57;17.70;;;15.90;;
15202;SDS011;7702;51.046;5.184;2023-06-22T07:51:23;20.73;;;16.43;;
15202;SDS011;7702;51.046;5.184;2023-06-22T07:53:49;17.93;;;15.13;;
15202;SDS011;7702;51.046;5.184;2023-06-22T07:56:15;20.93;;;16.67;;
15202;SDS011;7702;51.046;5.184;2023-06-22T07:58:44;18.20;;;16.50;;
15202;SDS011;7702;51.046;5.184;2023-06-22T08:01:11;19.43;;;16.90;;
15202;SDS011;7702;51.046;5.184;2023-06-22T08:03:37;18.47;;;16.47;;
15202;SDS011;7702;51.046;5.184;2023-06-22T08:06:03;19.73;;;16.97;;
15202;SDS011;7702;51.046;5.184;2023-06-22T08:08:28;18.97;;;16.97;;
15202;SDS011;7702;51.046;5.184;2023-06-22T08:10:54;20.63;;;16.27;;
15202;SDS011;7702;51.046;5.184;2023-06-22T08:13:20;18.50;;;16.50;;
15202;SDS011;7702;51.046;5.184;2023-06-22T08:15:45;22.00;;;17.70;;
15202;SDS011;7702;51.046;5.184;2023-06-22T08:18:11;24.57;;;18.13;;
15202;SDS011;7702;51.046;5.184;2023-06-22T08:20:37;23.90;;;18.17;;
15202;SDS011;7702;51.046;5.184;2023-06-22T08:23:03;22.07;;;18.50;;
15202;SDS011;7702;51.046;5.184;2023-06-22T08:25:30;20.50;;;18.40;;
15202;SDS011;7702;51.046;5.184;2023-06-22T08:28:00;21.83;;;18.07;;
15202;SDS011;7702;51.046;5.184;2023-06-22T08:30:29;19.83;;;17.53;;
15202;SDS011;7702;51.046;5.184;2023-06-22T08:32:55;20.80;;;18.60;;
15202;SDS011;7702;51.046;5.184;2023-06-22T08:35:24;23.07;;;18.80;;
15202;SDS011;7702;51.046;5.184;2023-06-22T08:37:50;21.67;;;19.27;;
15202;SDS011;7702;51.046;5.184;2023-06-22T08:40:19;22.20;;;19.33;;
15202;SDS011;7702;51.046;5.184;2023-06-22T08:42:46;22.40;;;20.13;;
15202;SDS011;7702;51.046;5.184;2023-06-22T08:45:12;22.70;;;20.60;;
15202;SDS011;7702;51.046;5.184;2023-06-22T08:47:42;22.70;;;20.30;;
15202;SDS011;7702;51.046;5.184;2023-06-22T08:50:08;21.43;;;19.43;;
15202;SDS011;7702;51.046;5.184;2023-06-22T08:52:35;21.93;;;19.90;;
15202;SDS011;7702;51.046;5.184;2023-06-22T08:55:01;22.67;;;20.43;;
15202;SDS011;7702;51.046;5.184;2023-06-22T08:57:27;23.57;;;21.27;;
15202;SDS011;7702;51.046;5.184;2023-06-22T08:59:54;23.20;;;21.00;;
15202;SDS011;7702;51.046;5.184;2023-06-22T09:02:23;22.33;;;20.23;;
15202;SDS011;7702;51.046;5.184;2023-06-22T09:04:51;22.60;;;20.60;;
15202;SDS011;7702;51.046;5.184;2023-06-22T09:07:20;22.87;;;20.67;;
15202;SDS011;7702;51.046;5.184;2023-06-22T09:09:48;25.63;;;23.07;;
15202;SDS011;7702;51.046;5.184;2023-06-22T09:12:15;25.17;;;22.57;;
15202;SDS011;7702;51.046;5.184;2023-06-22T09:14:40;26.07;;;23.10;;
15202;SDS011;7702;51.046;5.184;2023-06-22T09:17:06;31.03;;;24.43;;
15202;SDS011;7702;51.046;5.184;2023-06-22T09:19:32;29.10;;;24.77;;
15202;SDS011;7702;51.046;5.184;2023-06-22T09:21:58;27.07;;;24.50;;
15202;SDS011;7702;51.046;5.184;2023-06-22T09:24:24;29.13;;;26.07;;
15202;SDS011;7702;51.046;5.184;2023-06-22T09:26:50;28.70;;;25.80;;
15202;SDS011;7702;51.046;5.184;2023-06-22T09:29:16;29.80;;;26.73;;
15202;SDS011;7702;51.046;5.184;2023-06-22T09:31:42;30.53;;;27.63;;
15202;SDS011;7702;51.046;5.184;2023-06-22T09:34:07;31.83;;;28.60;;
15202;SDS011;7702;51.046;5.184;2023-06-22T09:36:33;32.13;;;28.83;;
15202;SDS011;7702;51.046;5.184;2023-06-22T09:38:59;31.10;;;27.90;;
15202;SDS011;7702;51.046;5.184;2023-06-22T09:41:30;31.40;;;28.20;;
15202;SDS011;7702;51.046;5.184;2023-06-22T09:43:56;31.57;;;28.57;;
15202;SDS011;7702;51.046;5.184;2023-06-22T09:46:22;31.40;;;28.20;;
15202;SDS011;7702;51.046;5.184;2023-06-22T09:48:50;32.67;;;29.13;;
15202;SDS011;7702;51.046;5.184;2023-06-22T09:51:16;30.67;;;27.70;;
15202;SDS011;7702;51.046;5.184;2023-06-22T09:53:41;31.00;;;28.10;;
15202;SDS011;7702;51.046;5.184;2023-06-22T09:56:07;33.07;;;29.33;;
15202;SDS011;7702;51.046;5.184;2023-06-22T09:58:39;31.67;;;28.63;;
15202;SDS011;7702;51.046;5.184;2023-06-22T10:01:08;31.93;;;28.70;;
15202;SDS011;7702;51.046;5.184;2023-06-22T10:03:35;30.23;;;27.33;;
15202;SDS011;7702;51.046;5.184;2023-06-22T10:06:01;32.13;;;29.03;;
15202;SDS011;7702;51.046;5.184;2023-06-22T10:08:27;32.10;;;28.67;;
15202;SDS011;7702;51.046;5.184;2023-06-22T10:10:53;32.23;;;29.13;;
15202;SDS011;7702;51.046;5.184;2023-06-22T10:13:19;32.83;;;29.70;;
15202;SDS011;7702;51.046;5.184;2023-06-22T10:15:45;31.00;;;27.90;;
15202;SDS011;7702;51.046;5.184;2023-06-22T10:18:15;31.70;;;28.50;;
15202;SDS011;7702;51.046;5.184;2023-06-22T10:20:43;31.40;;;28.20;;
15202;SDS011;7702;51.046;5.184;2023-06-22T10:23:12;32.40;;;29.07;;
15202;SDS011;7702;51.046;5.184;2023-06-22T10:25:37;31.87;;;28.80;;
15202;SDS011;7702;51.046;5.184;2023-06-22T10:28:03;35.07;;;31.43;;
15202;SDS011;7702;51.046;5.184;2023-06-22T10:30:29;36.50;;;32.80;;
15202;SDS011;7702;51.046;5.184;2023-06-22T10:32:55;36.90;;;33.27;;
15202;SDS011;7702;51.046;5.184;2023-06-22T10:35:21;40.23;;;35.63;;
15202;SDS011;7702;51.046;5.184;2023-06-22T10:37:46;40.27;;;36.23;;
15202;SDS011;7702;51.046;5.184;2023-06-22T10:40:13;41.70;;;37.40;;
15202;SDS011;7702;51.046;5.184;2023-06-22T10:42:40;40.57;;;36.57;;
15202;SDS011;7702;51.046;5.184;2023-06-22T10:45:06;46.43;;;41.63;;
15202;SDS011;7702;51.046;5.184;2023-06-22T10:47:33;44.57;;;40.13;;
15202;SDS011;7702;51.046;5.184;2023-06-22T10:49:59;46.87;;;41.87;;
15202;SDS011;7702;51.046;5.184;2023-06-22T10:52:24;43.33;;;38.70;;
15202;SDS011;7702;51.046;5.184;2023-06-22T10:54:50;43.60;;;39.13;;
15202;SDS011;7702;51.046;5.184;2023-06-22T10:57:17;44.10;;;39.50;;
15202;SDS011;7702;51.046;5.184;2023-06-22T10:59:43;47.43;;;42.57;;
15202;SDS011;7702;51.046;5.184;2023-06-22T11:02:09;40.40;;;36.23;;
15202;SDS011;7702;51.046;5.184;2023-06-22T11:04:35;38.97;;;35.17;;
15202;SDS011;7702;51.046;5.184;2023-06-22T11:07:01;42.43;;;38.13;;
15202;SDS011;7702;51.046;5.184;2023-06-22T11:09:27;43.23;;;38.73;;
15202;SDS011;7702;51.046;5.184;2023-06-22T11:11:53;41.33;;;37.10;;
15202;SDS011;7702;51.046;5.184;2023-06-22T11:14:18;43.23;;;38.87;;
15202;SDS011;7702;51.046;5.184;2023-06-22T11:16:45;45.23;;;40.43;;
15202;SDS011;7702;51.046;5.184;2023-06-22T11:19:14;46.27;;;40.90;;
15202;SDS011;7702;51.046;5.184;2023-06-22T11:21:40;44.77;;;40.33;;
15202;SDS011;7702;51.046;5.184;2023-06-22T11:24:05;46.67;;;41.77;;
15202;SDS011;7702;51.046;5.184;2023-06-22T11:26:31;45.70;;;41.00;;
15202;SDS011;7702;51.046;5.184;2023-06-22T11:28:58;44.80;;;40.43;;
15202;SDS011;7702;51.046;5.184;2023-06-22T11:31:24;45.07;;;40.63;;
15202;SDS011;7702;51.046;5.184;2023-06-22T11:33:49;43.67;;;39.33;;
15202;SDS011;7702;51.046;5.184;2023-06-22T11:36:15;45.33;;;40.80;;
15202;SDS011;7702;51.046;5.184;2023-06-22T11:38:41;43.77;;;39.30;;
15202;SDS011;7702;51.046;5.184;2023-06-22T11:41:08;43.50;;;39.00;;
15202;SDS011;7702;51.046;5.184;2023-06-22T11:43:34;44.57;;;39.97;;
15202;SDS011;7702;51.046;5.184;2023-06-22T11:46:02;41.57;;;37.47;;
15202;SDS011;7702;51.046;5.184;2023-06-22T11:48:29;42.37;;;38.07;;
15202;SDS011;7702;51.046;5.184;2023-06-22T11:50:55;42.73;;;38.43;;
15202;SDS011;7702;51.046;5.184;2023-06-22T11:53:23;41.07;;;37.03;;
15202;SDS011;7702;51.046;5.184;2023-06-22T11:55:49;41.37;;;37.27;;
15202;SDS011;7702;51.046;5.184;2023-06-22T11:58:15;40.20;;;36.30;;
15202;SDS011;7702;51.046;5.184;2023-06-22T12:00:41;42.20;;;38.13;;
15202;SDS011;7702;51.046;5.184;2023-06-22T12:03:07;42.60;;;38.30;;
15202;SDS011;7702;51.046;5.184;2023-06-22T12:05:34;42.03;;;37.73;;
15202;SDS011;7702;51.046;5.184;2023-06-22T12:08:00;40.33;;;36.50;;
15202;SDS011;7702;51.046;5.184;2023-06-22T12:10:26;40.53;;;36.43;;
15202;SDS011;7702;51.046;5.184;2023-06-22T12:12:53;39.97;;;35.77;;
15202;SDS011;7702;51.046;5.184;2023-06-22T12:15:19;40.80;;;36.73;;
15202;SDS011;7702;51.046;5.184;2023-06-22T12:17:45;40.57;;;36.53;;
15202;SDS011;7702;51.046;5.184;2023-06-22T12:20:13;40.57;;;36.50;;
15202;SDS011;7702;51.046;5.184;2023-06-22T12:22:39;41.87;;;37.63;;
15202;SDS011;7702;51.046;5.184;2023-06-22T12:25:06;42.43;;;38.00;;
15202;SDS011;7702;51.046;5.184;2023-06-22T12:27:32;43.63;;;39.30;;
15202;SDS011;7702;51.046;5.184;2023-06-22T12:29:58;43.97;;;39.33;;
15202;SDS011;7702;51.046;5.184;2023-06-22T12:32:24;45.20;;;39.20;;
15202;SDS011;7702;51.046;5.184;2023-06-22T12:34:50;43.83;;;39.10;;
15202;SDS011;7702;51.046;5.184;2023-06-22T12:37:16;45.43;;;40.87;;
15202;SDS011;7702;51.046;5.184;2023-06-22T12:39:43;47.77;;;42.83;;
15202;SDS011;7702;51.046;5.184;2023-06-22T12:42:09;46.53;;;41.73;;
15202;SDS011;7702;51.046;5.184;2023-06-22T12:44:37;47.10;;;42.20;;
15202;SDS011;7702;51.046;5.184;2023-06-22T12:47:04;46.60;;;41.87;;
15202;SDS011;7702;51.046;5.184;2023-06-22T12:49:30;45.63;;;40.87;;
15202;SDS011;7702;51.046;5.184;2023-06-22T12:51:56;47.17;;;42.30;;
15202;SDS011;7702;51.046;5.184;2023-06-22T12:54:22;46.37;;;41.83;;
15202;SDS011;7702;51.046;5.184;2023-06-22T12:56:49;46.23;;;41.60;;
15202;SDS011;7702;51.046;5.184;2023-06-22T12:59:15;49.80;;;44.63;;
15202;SDS011;7702;51.046;5.184;2023-06-22T13:01:42;48.47;;;43.53;;
15202;SDS011;7702;51.046;5.184;2023-06-22T13:04:09;48.33;;;43.17;;
15202;SDS011;7702;51.046;5.184;2023-06-22T13:06:36;47.57;;;42.90;;
15202;SDS011;7702;51.046;5.184;2023-06-22T13:09:01;49.07;;;44.07;;
15202;SDS011;7702;51.046;5.184;2023-06-22T13:11:30;49.43;;;44.17;;
15202;SDS011;7702;51.046;5.184;2023-06-22T13:13:56;50.03;;;44.87;;
15202;SDS011;7702;51.046;5.184;2023-06-22T13:16:21;46.23;;;41.53;;
15202;SDS011;7702;51.046;5.184;2023-06-22T13:18:47;48.13;;;43.33;;
15202;SDS011;7702;51.046;5.184;2023-06-22T13:21:13;47.57;;;42.77;;
15202;SDS011;7702;51.046;5.184;2023-06-22T13:23:39;47.00;;;42.13;;
15202;SDS011;7702;51.046;5.184;2023-06-22T13:26:05;47.13;;;42.43;;
15202;SDS011;7702;51.046;5.184;2023-06-22T13:28:30;47.77;;;43.07;;
15202;SDS011;7702;51.046;5.184;2023-06-22T13:30:57;48.60;;;43.50;;
15202;SDS011;7702;51.046;5.184;2023-06-22T13:33:22;46.87;;;42.23;;
15202;SDS011;7702;51.046;5.184;2023-06-22T13:35:48;49.07;;;44.10;;
15202;SDS011;7702;51.046;5.184;2023-06-22T13:38:14;50.03;;;45.07;;
15202;SDS011;7702;51.046;5.184;2023-06-22T13:40:40;50.03;;;44.80;;
15202;SDS011;7702;51.046;5.184;2023-06-22T13:43:06;50.30;;;45.43;;
15202;SDS011;7702;51.046;5.184;2023-06-22T13:45:33;51.40;;;46.13;;
15202;SDS011;7702;51.046;5.184;2023-06-22T13:47:58;52.57;;;47.27;;
15202;SDS011;7702;51.046;5.184;2023-06-22T13:50:25;53.57;;;48.03;;
15202;SDS011;7702;51.046;5.184;2023-06-22T13:52:50;51.00;;;45.90;;
15202;SDS011;7702;51.046;5.184;2023-06-22T13:55:16;53.40;;;47.93;;
15202;SDS011;7702;51.046;5.184;2023-06-22T13:57:42;49.20;;;44.23;;
15202;SDS011;7702;51.046;5.184;2023-06-22T14:00:08;48.87;;;43.97;;
15202;SDS011;7702;51.046;5.184;2023-06-22T14:02:34;49.33;;;44.30;;
15202;SDS011;7702;51.046;5.184;2023-06-22T14:05:00;49.10;;;43.50;;
15202;SDS011;7702;51.046;5.184;2023-06-22T14:07:27;47.30;;;42.40;;
15202;SDS011;7702;51.046;5.184;2023-06-22T14:09:53;46.63;;;41.93;;
15202;SDS011;7702;51.046;5.184;2023-06-22T14:12:18;48.33;;;43.23;;
15202;SDS011;7702;51.046;5.184;2023-06-22T14:14:44;45.03;;;40.50;;
15202;SDS011;7702;51.046;5.184;2023-06-22T14:17:10;47.50;;;42.50;;
15202;SDS011;7702;51.046;5.184;2023-06-22T14:19:36;44.97;;;40.43;;
15202;SDS011;7702;51.046;5.184;2023-06-22T14:22:02;46.23;;;41.37;;
15202;SDS011;7702;51.046;5.184;2023-06-22T14:24:28;45.47;;;40.67;;
15202;SDS011;7702;51.046;5.184;2023-06-22T14:26:54;46.03;;;41.47;;
15202;SDS011;7702;51.046;5.184;2023-06-22T14:29:20;46.60;;;41.60;;
15202;SDS011;7702;51.046;5.184;2023-06-22T14:31:47;41.23;;;37.23;;
15202;SDS011;7702;51.046;5.184;2023-06-22T14:34:13;41.23;;;36.97;;
15202;SDS011;7702;51.046;5.184;2023-06-22T14:36:40;39.63;;;35.60;;
15202;SDS011;7702;51.046;5.184;2023-06-22T14:39:06;37.60;;;33.77;;
15202;SDS011;7702;51.046;5.184;2023-06-22T14:41:32;40.40;;;35.30;;
15202;SDS011;7702;51.046;5.184;2023-06-22T14:43:57;36.33;;;32.77;;